メインページ
METAR-TAF:

METAR-TAF

空港 :

ポワンタピートル, グアドループ

ポワンタピートル国際空港

緯度: 16-16N, 経度: 061-31W, 海抜: 11m

現時点の気象観測

当レポートは35分前の22:00(UTC)に作成
東/南東の風 9kt
気温 29°C
湿度 74%
気圧 1014 hPa
視程10km以上
1,500メートル以下は雲なし、積乱雲なし

METAR: TFFR 262200Z AUTO 12009KT CAVOK 29/24 Q1014 TEMPO 4000 SHRA FEW018TCU

時間: 18:35 (22:35 UTC)

予報

当レポートは5時間35分前の17:00(UTC)に作成
予報は26日の 18時(UTC)から 27日の 18時(UTC)まで有効
東/南東の風 11kt
視程10km以上
高度3500ftの雲は散在している
確率 30% :
26日の 18時(UTC)から 26日の 24時(UTC)まで一時的に
視程: 4000m
高度1800ftの雲はほとんどない, 塔状積雲.
にわか雨
確率 30% :
27日の 15時(UTC)から 27日の 18時(UTC)まで一時的に
視程: 3000m
高度1800ftの雲は散在している, 塔状積雲.
にわか雨

TAF: TFFR 261700Z 2618/2718 12011KT 9999 SCT035 PROB30 TEMPO 2618/2624 4000 SHRA FEW018TCU PROB30 TEMPO 2715/2718 3000 SHRA SCT018TCU

4,000以上の空港の気象観測と天気予報(METAR報とTAF報)

利用可能な観測所は地図上に黄色い丸と赤い丸で示す。

丸の上にカーソルを重ねると観測所名を参照できる。

次にクリックすると気象観測と天気予報を参照できる。

マップの切り替え:黒色「×」印の緑ボタンをクリックして拡大、「-」印の緑ボタンをクリックして縮小、緑色の三角印をクリックして隣りの地図に切り替え


METAR-TAF: